Time;durP1;ratioP1;P1;durP2;ratioP2;P2;SDS_P1;SDS_P2;PMS_P1;PMS_P2;Temp;Humidity;BMP_temperature;BMP_pressure;BME280_temperature;BME280_humidity;BME280_pressure;Samples;Min_cycle;Max_cycle;Signal;HPM_P1;HPM_P2
2022/10/07 08:01:44;;;;;;;10.30;4.35;;;;;;;10.94;83.97;102244.09;5322574;27;20400;-71
2022/10/07 08:04:16;;;;;;;18.10;7.25;;;;;;;10.99;84.00;102238.59;5311791;28;20025;-73
2022/10/07 08:06:47;;;;;;;11.68;4.53;;;;;;;11.08;83.35;102244.53;5319773;28;20028;-73
2022/10/07 08:09:18;;;;;;;13.55;4.60;;;;;;;11.14;83.12;102248.19;5322077;28;20020;-73
2022/10/07 08:11:50;;;;;;;12.48;5.13;;;;;;;11.08;83.82;102239.81;5320885;28;20032;-73
2022/10/07 08:14:22;;;;;;;10.30;4.68;;;;;;;11.24;83.50;102240.81;5311194;28;20024;-73
2022/10/07 08:16:56;;;;;;;12.70;4.47;;;;;;;11.32;82.99;102240.38;5300699;28;20407;-74
2022/10/07 08:19:28;;;;;;;11.45;4.35;;;;;;;11.34;82.39;102233.72;5301382;28;20033;-75
2022/10/07 08:22:00;;;;;;;13.45;4.90;;;;;;;11.41;82.27;102232.41;5312664;28;20058;-76
2022/10/07 08:24:31;;;;;;;14.88;4.30;;;;;;;11.51;82.93;102226.13;5302313;28;20052;-75
2022/10/07 08:27:02;;;;;;;18.00;4.00;;;;;;;11.58;82.28;102223.97;5310326;28;20025;-76
2022/10/07 08:29:34;;;;;;;17.75;5.38;;;;;;;11.63;81.64;102224.03;5301096;28;20038;-74
2022/10/07 08:32:05;;;;;;;12.15;3.80;;;;;;;11.71;82.56;102231.03;5320226;28;20027;-75
2022/10/07 08:34:36;;;;;;;16.45;7.72;;;;;;;11.80;82.05;102229.44;5321920;28;20024;-74
2022/10/07 08:37:07;;;;;;;12.13;5.55;;;;;;;11.86;81.19;102231.22;5321924;28;20028;-76
2022/10/07 08:39:40;;;;;;;14.10;4.40;;;;;;;11.97;81.39;102232.13;5306654;28;20030;-76
2022/10/07 08:42:24;;;;;;;13.23;4.20;;;;;;;12.00;80.75;102226.03;5315654;28;20132;-76
2022/10/07 08:44:55;;;;;;;7.95;3.28;;;;;;;12.03;80.31;102222.72;5309177;28;20030;-74
2022/10/07 08:47:43;;;;;;;6.97;3.30;;;;;;;12.15;81.70;102214.19;5320232;28;20444;-71
2022/10/07 08:50:16;;;;;;;13.25;3.63;;;;;;;12.27;82.19;102217.63;5321914;28;20047;-71
2022/10/07 08:53:04;;;;;;;9.00;3.42;;;;;;;12.54;84.70;102211.94;5310333;27;20107;-71
2022/10/07 08:55:40;;;;;;;8.48;3.53;;;;;;;12.44;80.98;102214.66;5314798;28;20043;-70
2022/10/07 08:58:33;;;;;;;9.93;3.70;;;;;;;12.44;80.57;102200.75;5305571;28;20090;-71
2022/10/07 09:01:24;;;;;;;9.63;3.85;;;;;;;12.51;80.09;102195.78;5320499;28;20506;-70
2022/10/07 09:04:10;;;;;;;10.63;4.00;;;;;;;12.51;80.02;102201.34;5321500;28;20386;-70
2022/10/07 09:06:45;;;;;;;;;;;;;;;12.57;79.79;102188.28;5321210;28;20028;-70
2022/10/07 09:09:52;;;;;;;12.30;3.40;;;;;;;12.62;80.60;102197.50;5320861;28;19957;-71
2022/10/07 09:12:36;;;;;;;7.50;3.63;;;;;;;12.74;80.56;102188.09;5290965;28;20120;-70
2022/10/07 09:15:22;;;;;;;8.52;3.38;;;;;;;12.86;80.75;102191.50;5305606;28;20536;-70
2022/10/07 09:17:58;;;;;;;8.82;3.60;;;;;;;12.90;80.17;102194.56;5306921;28;20089;-70
2022/10/07 09:20:35;;;;;;;9.43;3.78;;;;;;;12.99;79.27;102185.41;5306549;28;20032;-71
2022/10/07 09:23:14;;;;;;;7.13;3.10;;;;;;;13.07;78.58;102181.25;5306959;28;20024;-71
2022/10/07 09:25:45;;;;;;;10.48;3.70;;;;;;;13.15;78.77;102177.09;5306946;28;20020;-71
2022/10/07 09:28:20;;;;;;;12.00;5.55;;;;;;;13.26;78.12;102174.09;5305812;28;20027;-70
2022/10/07 09:30:51;;;;;;;6.73;3.63;;;;;;;13.37;77.08;102169.38;5306586;28;20016;-70
2022/10/07 09:33:29;;;;;;;13.18;3.88;;;;;;;13.46;76.72;102173.28;5297267;28;20282;-72
2022/10/07 09:36:09;;;;;;;10.43;3.92;;;;;;;13.52;76.60;102164.94;5284929;28;20046;-71
2022/10/07 09:38:44;;;;;;;9.50;2.90;;;;;;;13.52;76.22;102162.97;5285321;28;20027;-70
2022/10/07 09:41:34;;;;;;;12.38;3.67;;;;;;;13.69;76.31;102159.91;5284858;28;20467;-71
2022/10/07 09:44:15;;;;;;;13.13;4.03;;;;;;;13.66;74.45;102149.34;5285692;28;20047;-72
2022/10/07 09:46:52;;;;;;;10.57;2.95;;;;;;;13.77;74.30;102156.56;5290831;28;20025;-72
2022/10/07 09:49:37;;;;;;;16.10;6.00;;;;;;;13.74;74.39;102154.34;5294341;28;20027;-71
2022/10/07 09:52:34;;;;;;;13.68;7.28;;;;;;;13.83;73.62;102149.03;5285261;28;20024;-71
2022/10/07 09:55:36;;;;;;;7.05;3.08;;;;;;;13.92;72.65;102145.41;5295279;28;20478;-69
2022/10/07 09:58:27;;;;;;;8.02;3.03;;;;;;;13.98;72.98;102139.81;5306093;28;20340;-69
2022/10/07 10:01:00;;;;;;;7.60;3.03;;;;;;;13.95;71.51;102148.75;5305639;28;20459;-70
2022/10/07 10:03:35;;;;;;;15.15;4.20;;;;;;;14.06;72.61;102142.03;5302636;28;20077;-69
2022/10/07 10:06:07;;;;;;;8.68;3.55;;;;;;;14.12;71.50;102138.97;5288952;28;20040;-70
2022/10/07 10:08:42;;;;;;;11.65;3.13;;;;;;;14.18;71.55;102136.97;5305100;28;20028;-71
2022/10/07 10:11:16;;;;;;;8.90;3.90;;;;;;;14.19;70.99;102135.88;5289421;28;20102;-70
2022/10/07 10:13:49;;;;;;;12.90;3.45;;;;;;;14.22;70.11;102129.72;5283858;28;20120;-71
2022/10/07 10:16:23;;;;;;;7.20;3.05;;;;;;;14.27;70.52;102124.13;5283048;28;20527;-73
2022/10/07 10:19:03;;;;;;;12.55;3.67;;;;;;;14.41;70.14;102120.75;5294141;28;20032;-72
2022/10/07 10:21:41;;;;;;;12.50;3.40;;;;;;;14.58;70.67;102118.47;5291420;28;20035;-72
2022/10/07 10:24:14;;;;;;;9.07;2.80;;;;;;;14.65;70.32;102116.22;5283495;28;20020;-72
2022/10/07 10:27:17;;;;;;;7.88;2.85;;;;;;;14.64;69.92;102102.53;5285323;28;20104;-74
2022/10/07 10:30:14;;;;;;;11.52;3.22;;;;;;;14.64;68.57;102103.34;5301902;28;20197;-74
2022/10/07 10:33:07;;;;;;;12.52;3.03;;;;;;;14.66;68.06;102091.91;5291823;28;20124;-70
2022/10/07 10:36:00;;;;;;;9.45;3.38;;;;;;;14.79;67.84;102092.09;5305443;28;20032;-69
2022/10/07 10:39:01;;;;;;;9.38;3.38;;;;;;;14.86;67.48;102088.19;5285559;28;20171;-70
2022/10/07 10:41:50;;;;;;;14.88;3.20;;;;;;;14.88;67.25;102075.59;5284682;28;20063;-72
2022/10/07 10:44:34;;;;;;;7.63;2.55;;;;;;;14.94;66.07;102073.59;5283542;28;20451;-72
2022/10/07 10:47:25;;;;;;;7.88;3.38;;;;;;;14.98;66.37;102071.88;5303421;28;20394;-72
2022/10/07 10:50:01;;;;;;;9.07;3.25;;;;;;;15.11;65.60;102062.88;5299125;28;20447;-71
2022/10/07 10:52:54;;;;;;;7.65;2.60;;;;;;;15.04;64.98;102070.72;5286247;28;20461;-69
2022/10/07 10:56:03;;;;;;;12.25;3.85;;;;;;;15.17;64.71;102061.69;5299612;28;20020;-71
2022/10/07 10:58:59;;;;;;;7.60;3.17;;;;;;;15.23;65.26;102068.06;5303185;28;20020;-69
2022/10/07 11:01:36;;;;;;;11.45;2.92;;;;;;;15.28;64.88;102056.84;5304519;28;20044;-70
2022/10/07 11:04:10;;;;;;;11.23;3.47;;;;;;;15.33;64.61;102047.59;5304541;28;20020;-71
2022/10/07 11:06:46;;;;;;;14.30;6.03;;;;;;;15.41;64.85;102055.34;5303611;28;20020;-71
2022/10/07 11:09:39;;;;;;;12.80;4.60;;;;;;;15.43;63.80;102045.53;5304596;28;20035;-70
2022/10/07 11:12:22;;;;;;;8.05;2.88;;;;;;;15.47;63.03;102047.72;5289198;28;20028;-71
2022/10/07 11:15:23;;;;;;;10.88;3.05;;;;;;;15.49;62.93;102045.47;5282741;28;20034;-69
2022/10/07 11:18:00;;;;;;;8.98;2.53;;;;;;;15.61;62.59;102037.53;5294503;28;20067;-70
2022/10/07 11:20:35;;;;;;;7.47;2.88;;;;;;;15.64;62.47;102037.78;5292595;28;20028;-71
2022/10/07 11:23:18;;;;;;;5.28;2.47;;;;;;;15.76;62.15;102031.00;5304481;28;20106;-71
2022/10/07 11:26:01;;;;;;;10.35;3.28;;;;;;;15.84;62.29;102030.34;5283854;28;20033;-71
2022/10/07 11:28:35;;;;;;;6.25;2.70;;;;;;;15.82;61.58;102027.84;5290940;28;20024;-70
2022/10/07 11:31:20;;;;;;;9.57;3.05;;;;;;;15.91;62.41;102014.03;5301278;28;20020;-70
2022/10/07 11:34:27;;;;;;;8.38;2.97;;;;;;;16.00;61.63;102015.06;5282569;28;20031;-70
2022/10/07 11:37:20;;;;;;;6.78;2.63;;;;;;;16.04;61.31;101999.31;5282741;28;20158;-71
2022/10/07 11:39:55;;;;;;;8.90;2.63;;;;;;;16.12;61.65;101992.22;5282799;28;20058;-71
2022/10/07 11:42:30;;;;;;;9.23;3.10;;;;;;;16.26;61.08;101984.78;5282492;28;20078;-69
2022/10/07 11:45:09;;;;;;;10.10;3.75;;;;;;;16.34;61.61;101985.25;5288660;28;20030;-71
2022/10/07 11:47:46;;;;;;;6.82;2.42;;;;;;;16.33;61.45;101976.00;5303101;28;20063;-70
2022/10/07 11:50:31;;;;;;;9.27;3.80;;;;;;;16.35;61.26;101968.13;5303462;28;20020;-69
2022/10/07 11:53:21;;;;;;;10.20;2.33;;;;;;;16.32;60.89;101962.31;5286570;28;20033;-69
2022/10/07 11:56:00;;;;;;;8.75;2.47;;;;;;;16.38;60.52;101961.94;5287357;28;20331;-68
2022/10/07 11:58:37;;;;;;;11.00;4.47;;;;;;;16.51;60.75;101949.13;5303640;28;20023;-69
2022/10/07 12:01:24;;;;;;;7.90;2.35;;;;;;;16.62;60.50;101947.03;5304000;28;20052;-68
2022/10/07 12:03:55;;;;;;;12.40;4.47;;;;;;;16.61;60.15;101948.16;5282472;28;20093;-71
2022/10/07 12:06:27;;;;;;;6.95;2.60;;;;;;;16.57;59.82;101947.13;5283787;28;20024;-71
2022/10/07 12:09:38;;;;;;;12.73;3.15;;;;;;;16.67;60.34;101938.56;5286535;28;20120;-69
2022/10/07 12:12:12;;;;;;;9.23;2.70;;;;;;;16.78;59.59;101933.66;5296833;28;20036;-69
2022/10/07 12:14:58;;;;;;;9.48;2.70;;;;;;;16.75;59.59;101926.66;5303142;28;20067;-70
2022/10/07 12:17:30;;;;;;;8.55;3.47;;;;;;;16.79;60.64;101922.13;5303236;28;20374;-69
2022/10/07 12:20:41;;;;;;;7.78;3.25;;;;;;;16.88;60.01;101913.88;5290442;28;20063;-70
2022/10/07 12:23:16;;;;;;;5.28;2.63;;;;;;;16.81;59.51;101919.03;5294589;28;20028;-71
2022/10/07 12:26:24;;;;;;;11.02;3.03;;;;;;;16.92;60.07;101906.50;5304689;28;20379;-74
2022/10/07 12:29:02;;;;;;;11.35;2.67;;;;;;;16.99;59.35;101894.91;5283831;28;20043;-76
2022/10/07 12:31:45;;;;;;;8.15;3.60;;;;;;;17.10;59.73;101894.41;5297918;28;20039;-73
2022/10/07 12:34:35;;;;;;;10.20;2.85;;;;;;;17.16;60.01;101892.34;5308220;28;20040;-74
2022/10/07 12:37:45;;;;;;;10.55;3.03;;;;;;;17.28;59.48;101889.88;5300918;28;20086;-72
2022/10/07 12:40:23;;;;;;;6.93;2.58;;;;;;;17.32;59.08;101878.84;5299908;28;20039;-71
2022/10/07 12:43:09;;;;;;;11.27;3.72;;;;;;;17.40;58.75;101886.53;5309072;28;20467;-77
2022/10/07 12:45:42;;;;;;;;;;;;;;;17.54;58.38;101875.34;5291689;28;20024;-75
2022/10/07 12:48:21;;;;;;;8.60;3.65;;;;;;;17.54;58.32;101869.72;5299280;28;19923;-72
2022/10/07 12:50:55;;;;;;;11.75;3.88;;;;;;;17.55;58.10;101868.56;5291336;28;20111;-73
2022/10/07 12:53:34;;;;;;;10.63;2.50;;;;;;;17.62;57.77;101866.19;5295473;28;20016;-71
2022/10/07 12:56:06;;;;;;;9.18;2.65;;;;;;;17.62;57.36;101866.19;5292514;28;20027;-73
2022/10/07 13:02:22;;;;;;;11.63;2.42;;;;;;;17.82;57.85;101842.50;5298893;28;20063;-72
2022/10/07 13:05:25;;;;;;;8.98;3.67;;;;;;;17.86;57.36;101834.28;5301445;28;20038;-69
2022/10/07 13:08:06;;;;;;;11.63;3.17;;;;;;;17.93;57.52;101832.69;5305610;28;20028;-69
2022/10/07 13:10:52;;;;;;;7.70;3.10;;;;;;;17.95;57.18;101836.03;5295553;28;20028;-69
2022/10/07 13:13:42;;;;;;;15.20;11.15;;;;;;;17.95;56.86;101835.22;5300567;28;20028;-67
2022/10/07 13:16:41;;;;;;;10.07;3.30;;;;;;;18.06;56.79;101825.38;5296327;28;20149;-70
2022/10/07 13:19:35;;;;;;;12.57;2.85;;;;;;;18.11;57.71;101828.06;5288863;28;20024;-69
2022/10/07 13:22:18;;;;;;;7.53;3.03;;;;;;;18.14;56.83;101816.19;5295851;28;20108;-71
2022/10/07 13:24:53;;;;;;;7.80;3.00;;;;;;;18.25;57.25;101813.97;5299631;28;20036;-75
2022/10/07 13:27:30;;;;;;;7.70;2.95;;;;;;;18.22;56.57;101821.06;5298538;28;20464;-74
2022/10/07 13:30:05;;;;;;;7.55;2.72;;;;;;;18.14;55.80;101816.19;5299085;28;20039;-72
2022/10/07 13:32:36;;;;;;;9.50;3.37;;;;;;;18.15;56.73;101809.47;5301020;28;20024;-73
2022/10/07 13:35:40;;;;;;;6.90;3.05;;;;;;;18.23;56.28;101797.47;5292802;28;20106;-73
2022/10/07 13:38:29;;;;;;;7.70;2.90;;;;;;;18.19;55.90;101790.81;5282418;28;20097;-71
2022/10/07 13:41:13;;;;;;;7.93;2.72;;;;;;;18.04;56.07;101788.38;5305603;28;20035;-73
2022/10/07 13:43:52;;;;;;;8.50;3.00;;;;;;;18.01;56.11;101789.84;5302451;28;20025;-72
2022/10/07 13:46:27;;;;;;;12.13;7.70;;;;;;;18.00;55.56;101784.56;5285403;28;20399;-74
2022/10/07 13:49:00;;;;;;;5.72;2.75;;;;;;;18.01;55.90;101780.59;5285054;28;20032;-75
2022/10/07 13:51:35;;;;;;;9.07;3.08;;;;;;;17.96;56.02;101787.16;5285279;28;20475;-74
2022/10/07 13:54:18;;;;;;;7.88;3.75;;;;;;;17.99;56.92;101774.47;5285240;28;20039;-74
2022/10/07 13:56:50;;;;;;;11.00;3.22;;;;;;;18.02;56.69;101773.81;5293085;28;20028;-73
2022/10/07 13:59:22;;;;;;;9.23;3.95;;;;;;;17.99;55.92;101774.47;5302244;28;20419;-74
2022/10/07 14:02:00;;;;;;;8.45;3.20;;;;;;;18.00;55.36;101773.34;5296217;28;20024;-75
2022/10/07 14:04:48;;;;;;;6.22;2.53;;;;;;;17.99;55.38;101772.50;5298735;28;20114;-73
2022/10/07 14:07:20;;;;;;;9.07;2.58;;;;;;;17.91;54.37;101762.03;5305369;28;20064;-73
2022/10/07 14:10:03;;;;;;;6.65;2.10;;;;;;;17.90;54.60;101756.75;5304930;28;20024;-74
2022/10/07 14:12:56;;;;;;;5.95;2.10;;;;;;;17.93;54.58;101754.13;5294144;28;20323;-73
2022/10/07 14:15:30;;;;;;;6.00;2.63;;;;;;;17.87;55.06;101755.41;5283476;28;20025;-73
2022/10/07 14:18:07;;;;;;;8.02;2.28;;;;;;;17.88;55.26;101743.03;5287977;28;20059;-72
2022/10/07 14:20:44;;;;;;;6.82;3.15;;;;;;;17.94;54.15;101740.91;5288096;28;20762;-73
2022/10/07 14:23:33;;;;;;;8.38;2.83;;;;;;;17.99;54.76;101735.19;5303052;28;20020;-73
2022/10/07 14:26:13;;;;;;;8.88;3.42;;;;;;;17.94;54.64;101738.94;5304864;28;20024;-70
2022/10/07 14:28:44;;;;;;;7.88;2.28;;;;;;;17.94;54.79;101735.31;5293976;28;20028;-75
2022/10/07 14:37:09;;;;;;;6.57;2.45;;;;;;;17.90;55.37;101717.47;5283794;28;20032;-73
2022/10/07 14:39:41;;;;;;;;;;;;;;;17.96;55.63;101713.38;5287476;28;20025;-73
2022/10/07 14:42:24;;;;;;;7.38;2.90;;;;;;;17.91;55.69;101714.31;5305057;28;19919;-74
2022/10/07 14:44:56;;;;;;;6.30;2.00;;;;;;;17.85;55.43;101707.19;5292469;28;20052;-73
2022/10/07 14:47:30;;;;;;;7.25;2.40;;;;;;;17.80;55.17;101704.50;5284301;28;20024;-73
2022/10/07 14:50:01;;;;;;;5.65;2.47;;;;;;;17.82;55.37;101702.22;5287988;28;20028;-73
2022/10/07 14:52:36;;;;;;;4.88;2.30;;;;;;;17.78;55.68;101704.78;5285110;28;20027;-73
2022/10/07 14:55:19;;;;;;;;;;;;;;;17.89;55.92;101701.75;5285026;28;20043;-74
2022/10/07 14:57:52;;;;;;;8.75;2.40;;;;;;;17.84;55.79;101699.91;5285614;28;19917;-74
2022/10/07 15:00:26;;;;;;;6.18;2.50;;;;;;;17.87;55.50;101693.69;5302238;28;20040;-72
2022/10/07 15:02:57;;;;;;;5.20;1.95;;;;;;;17.81;54.95;101690.16;5288159;28;20095;-73
2022/10/07 15:05:31;;;;;;;6.40;2.20;;;;;;;17.83;55.52;101687.03;5293823;28;20119;-73
2022/10/07 15:08:03;;;;;;;10.88;2.78;;;;;;;17.83;56.68;101680.59;5304479;28;20031;-75
2022/10/07 15:10:34;;;;;;;8.52;2.80;;;;;;;17.93;55.26;101680.34;5288814;28;20020;-75
2022/10/07 15:13:08;;;;;;;7.75;2.70;;;;;;;17.88;55.10;101686.91;5293633;28;20021;-75
2022/10/07 15:15:42;;;;;;;8.25;2.13;;;;;;;17.84;55.08;101687.84;5283764;28;20027;-74
2022/10/07 15:18:13;;;;;;;6.55;2.33;;;;;;;17.92;55.62;101678.66;5302773;28;20031;-75
2022/10/07 15:20:44;;;;;;;3.60;2.00;;;;;;;17.94;55.06;101676.38;5302010;28;20383;-74
2022/10/07 15:23:22;;;;;;;8.52;2.28;;;;;;;17.95;55.48;101678.88;5304643;28;20050;-73
2022/10/07 15:25:54;;;;;;;9.27;3.42;;;;;;;17.99;55.22;101679.06;5292194;28;20056;-73
2022/10/07 15:28:25;;;;;;;7.35;2.60;;;;;;;18.01;55.12;101674.78;5304190;28;20024;-72
2022/10/07 15:31:04;;;;;;;5.95;2.20;;;;;;;17.93;54.88;101672.75;5288428;28;20031;-73
2022/10/07 15:33:35;;;;;;;10.00;2.92;;;;;;;17.84;55.43;101666.22;5304062;28;20044;-73
2022/10/07 15:36:10;;;;;;;6.85;2.78;;;;;;;17.76;55.33;101665.00;5302972;28;20074;-74
2022/10/07 15:38:41;;;;;;;4.70;2.30;;;;;;;17.72;55.51;101663.16;5296199;28;20028;-74
2022/10/07 15:41:31;;;;;;;9.15;2.35;;;;;;;17.62;56.00;101657.81;5282721;28;20025;-73
2022/10/07 15:44:06;;;;;;;6.38;2.70;;;;;;;17.59;55.80;101648.88;5284745;28;20038;-73
2022/10/07 15:46:37;;;;;;;9.83;3.67;;;;;;;17.53;55.66;101644.50;5283421;28;20108;-71
2022/10/07 15:49:08;;;;;;;6.28;2.85;;;;;;;17.49;55.94;101639.88;5282465;28;20712;-73
2022/10/07 15:51:40;;;;;;;11.27;4.15;;;;;;;17.41;56.71;101635.88;5283754;28;20032;-72
2022/10/07 15:54:11;;;;;;;8.98;2.83;;;;;;;17.34;56.49;101632.66;5282615;28;20032;-74
2022/10/07 15:56:44;;;;;;;9.23;3.80;;;;;;;17.36;56.76;101634.00;5291691;28;20032;-73
2022/10/07 15:59:15;;;;;;;8.73;3.17;;;;;;;17.30;56.96;101640.84;5304088;28;20031;-74
2022/10/07 16:01:48;;;;;;;7.40;3.40;;;;;;;17.32;57.25;101638.56;5302444;28;20024;-72
2022/10/07 16:04:19;;;;;;;5.65;2.78;;;;;;;17.27;57.12;101629.47;5302578;28;20020;-71
2022/10/07 16:06:51;;;;;;;8.57;2.92;;;;;;;17.23;57.40;101639.63;5295542;28;20065;-73
2022/10/07 16:09:23;;;;;;;7.57;2.33;;;;;;;17.17;57.56;101630.53;5303555;28;20024;-73
2022/10/07 16:11:54;;;;;;;6.20;2.30;;;;;;;17.20;57.71;101627.06;5303071;28;20027;-71
2022/10/07 16:14:25;;;;;;;9.73;2.63;;;;;;;17.12;57.18;101627.84;5304058;28;20024;-70
2022/10/07 16:16:57;;;;;;;6.28;2.67;;;;;;;17.04;57.58;101623.81;5297979;28;20074;-70
2022/10/07 16:19:29;;;;;;;8.55;2.75;;;;;;;17.02;58.22;101630.88;5303753;28;20054;-69
2022/10/07 16:22:00;;;;;;;10.20;2.53;;;;;;;16.99;58.29;101628.69;5303602;28;20031;-69
2022/10/07 16:24:33;;;;;;;6.72;2.25;;;;;;;16.95;58.54;101628.50;5307721;28;20020;-69
2022/10/07 16:27:04;;;;;;;11.15;2.55;;;;;;;16.92;58.67;101629.97;5305796;28;20383;-69
2022/10/07 16:32:25;;;;;;;5.88;3.10;;;;;;;16.79;58.65;101633.59;5300770;28;20364;-70
2022/10/07 16:34:56;;;;;;;6.18;3.47;;;;;;;16.73;59.11;101640.41;5287125;28;20021;-71
2022/10/07 16:37:29;;;;;;;6.43;2.35;;;;;;;16.71;59.13;101637.09;5290238;28;20202;-70
2022/10/07 16:40:00;;;;;;;11.30;3.60;;;;;;;16.67;59.18;101633.28;5307597;28;20020;-71
2022/10/07 16:42:32;;;;;;;8.25;2.75;;;;;;;16.67;59.83;101627.69;5307717;28;20020;-75
2022/10/07 16:45:04;;;;;;;8.35;3.10;;;;;;;16.63;59.78;101637.84;5306783;28;20119;-77
2022/10/07 16:47:35;;;;;;;4.97;2.38;;;;;;;16.70;61.67;101624.25;5303351;28;20035;-76
2022/10/07 16:50:08;;;;;;;8.15;3.25;;;;;;;16.58;60.05;101618.34;5292600;28;20386;-75
2022/10/07 16:52:39;;;;;;;8.15;2.95;;;;;;;16.41;60.74;101619.81;5297335;28;20028;-75
2022/10/07 16:55:11;;;;;;;8.15;4.40;;;;;;;16.44;60.83;101621.97;5299238;28;20028;-76
2022/10/07 16:57:46;;;;;;;10.45;3.15;;;;;;;16.41;61.54;101622.59;5303746;28;20028;-76
2022/10/07 17:00:17;;;;;;;9.52;3.10;;;;;;;16.35;61.65;101623.81;5285975;28;20128;-73
2022/10/07 17:02:48;;;;;;;11.63;3.65;;;;;;;16.35;61.99;101623.00;5286545;28;20111;-72
2022/10/07 17:05:19;;;;;;;9.32;3.15;;;;;;;16.36;63.27;101627.44;5285685;28;20060;-72
2022/10/07 17:07:51;;;;;;;12.38;4.47;;;;;;;16.19;62.09;101622.47;5286941;28;20028;-73
2022/10/07 17:10:22;;;;;;;14.93;3.78;;;;;;;16.22;62.08;101621.84;5298965;28;20055;-73
2022/10/07 17:12:53;;;;;;;13.15;4.03;;;;;;;16.17;61.99;101624.75;5295870;28;20129;-73
2022/10/07 17:15:25;;;;;;;8.63;3.55;;;;;;;16.15;62.07;101632.59;5285892;28;20034;-72
2022/10/07 17:17:56;;;;;;;8.32;3.63;;;;;;;16.11;62.20;101620.41;5286037;28;20118;-75
2022/10/07 17:20:29;;;;;;;8.48;3.70;;;;;;;16.04;62.67;101624.41;5290538;28;20041;-73
2022/10/07 17:23:00;;;;;;;10.18;3.65;;;;;;;16.07;62.49;101620.97;5295147;28;20024;-81
2022/10/07 17:25:31;;;;;;;8.43;3.83;;;;;;;15.98;62.96;101622.03;5285594;28;20540;-80
2022/10/07 17:28:03;;;;;;;8.07;3.58;;;;;;;15.92;62.77;101618.47;5296072;28;20024;-80
2022/10/07 17:30:34;;;;;;;9.85;3.70;;;;;;;15.88;62.92;101622.22;5307453;27;20116;-76
2022/10/07 17:33:05;;;;;;;11.73;5.10;;;;;;;15.88;63.15;101616.63;5305783;28;20119;-76
